Time;durP1;ratioP1;P1;durP2;ratioP2;P2;SDS_P1;SDS_P2;PMS_P1;PMS_P2;Temp;Humidity;BMP_temperature;BMP_pressure;BME280_temperature;BME280_humidity;BME280_pressure;Samples;Min_cycle;Max_cycle;Signal;HPM_P1;HPM_P2
2022/07/04 00:01:43;;;;;;;24.53;3.73;;;22.40;22.20;;;;;;5068908;28;20490;-71
2022/07/04 00:04:10;;;;;;;24.60;3.60;;;22.30;22.20;;;;;;5075110;28;20488;-69
2022/07/04 00:06:37;;;;;;;24.70;3.70;;;22.40;22.20;;;;;;5071809;28;20480;-69
2022/07/04 00:09:04;;;;;;;24.40;3.50;;;22.40;22.20;;;;;;5077927;28;20453;-70
2022/07/04 00:11:31;;;;;;;26.13;3.50;;;22.40;22.60;;;;;;5080506;28;20472;-69
2022/07/04 00:13:58;;;;;;;23.37;3.27;;;22.30;22.50;;;;;;5079642;28;20485;-69
2022/07/04 00:16:24;;;;;;;23.80;3.37;;;22.30;23.60;;;;;;5073540;28;20473;-69
2022/07/04 00:18:52;;;;;;;24.47;2.80;;;22.40;23.90;;;;;;5078734;28;20487;-70
2022/07/04 00:21:19;;;;;;;23.80;3.50;;;22.40;23.30;;;;;;5065481;28;20468;-69
2022/07/04 00:23:46;;;;;;;24.60;4.10;;;22.40;23.20;;;;;;5081514;28;20484;-69
2022/07/04 00:26:13;;;;;;;24.10;3.97;;;22.40;23.30;;;;;;5076638;28;20476;-70
2022/07/04 00:28:40;;;;;;;24.93;3.60;;;22.40;23.20;;;;;;5072007;28;20465;-69
2022/07/04 00:31:06;;;;;;;24.07;3.47;;;22.30;23.40;;;;;;5077226;28;20477;-69
2022/07/04 00:33:33;;;;;;;25.20;4.00;;;22.30;23.60;;;;;;5074365;28;20485;-69
2022/07/04 00:36:01;;;;;;;24.73;3.17;;;22.30;23.80;;;;;;5078587;28;20464;-69
2022/07/04 00:38:28;;;;;;;26.10;3.40;;;22.20;23.50;;;;;;5071231;28;20995;-70
2022/07/04 00:40:55;;;;;;;24.53;3.80;;;22.20;23.50;;;;;;5069065;28;20445;-69
2022/07/04 00:43:24;;;;;;;26.53;4.00;;;22.20;23.50;;;;;;5066639;28;20512;-70
2022/07/04 00:45:51;;;;;;;24.70;3.83;;;22.20;23.10;;;;;;5068872;28;21014;-70
2022/07/04 00:48:18;;;;;;;26.80;3.40;;;22.20;22.90;;;;;;5072950;28;21128;-69
2022/07/04 00:50:45;;;;;;;25.60;4.00;;;22.20;22.90;;;;;;5080295;28;20484;-70
2022/07/04 00:53:14;;;;;;;23.90;3.03;;;22.20;23.10;;;;;;5068792;28;20484;-69
2022/07/04 00:55:41;;;;;;;24.80;3.93;;;22.20;23.10;;;;;;5075525;28;20464;-69
2022/07/04 00:58:08;;;;;;;27.20;3.90;;;22.20;23.00;;;;;;5071129;28;20461;-69
2022/07/04 01:00:35;;;;;;;24.33;3.53;;;22.20;23.10;;;;;;5067640;28;20985;-70
2022/07/04 01:03:02;;;;;;;25.10;4.20;;;22.10;23.50;;;;;;5078980;28;20461;-69
2022/07/04 01:05:29;;;;;;;24.30;3.73;;;22.10;23.50;;;;;;5087960;28;20457;-69
2022/07/04 01:07:56;;;;;;;24.90;3.87;;;22.10;23.60;;;;;;5066364;28;20473;-70
2022/07/04 01:10:25;;;;;;;24.50;3.73;;;22.00;23.70;;;;;;5069205;28;20452;-69
2022/07/04 01:12:54;;;;;;;24.87;4.17;;;21.90;24.00;;;;;;5077812;28;21156;-70
2022/07/04 01:15:20;;;;;;;24.20;3.67;;;21.90;24.20;;;;;;5072284;28;20456;-69
2022/07/04 01:17:47;;;;;;;23.77;3.60;;;21.90;24.50;;;;;;5080771;28;20532;-69
2022/07/04 01:20:16;;;;;;;25.37;4.10;;;21.90;24.80;;;;;;5085313;28;20456;-69
2022/07/04 01:22:43;;;;;;;25.00;3.70;;;21.80;24.70;;;;;;5075538;28;20571;-70
2022/07/04 01:25:10;;;;;;;26.50;4.00;;;21.80;25.00;;;;;;5066595;28;20480;-69
2022/07/04 01:27:37;;;;;;;24.70;3.80;;;21.80;25.30;;;;;;5071492;28;20481;-70
2022/07/04 01:30:04;;;;;;;27.50;4.50;;;21.70;25.60;;;;;;5076703;28;20469;-69
2022/07/04 01:32:31;;;;;;;26.03;4.30;;;21.70;26.00;;;;;;5068068;28;20507;-70
2022/07/04 01:34:58;;;;;;;24.07;4.00;;;21.70;26.10;;;;;;5078622;28;20468;-70
2022/07/04 01:37:26;;;;;;;24.17;3.63;;;21.60;26.10;;;;;;5072810;28;20450;-69
2022/07/04 01:39:52;;;;;;;23.70;4.20;;;21.60;26.50;;;;;;5068093;28;20456;-70
2022/07/04 01:42:19;;;;;;;26.07;4.30;;;21.60;26.90;;;;;;5075155;28;20460;-69
2022/07/04 01:44:46;;;;;;;25.60;4.33;;;21.60;27.70;;;;;;5066529;28;20483;-69
2022/07/04 01:47:13;;;;;;;23.77;4.17;;;21.60;27.90;;;;;;5071429;28;20487;-69
2022/07/04 01:49:39;;;;;;;24.77;4.40;;;21.50;28.10;;;;;;5070858;28;20467;-69
2022/07/04 01:52:07;;;;;;;25.13;4.67;;;21.50;28.20;;;;;;5080034;28;20469;-70
2022/07/04 01:54:35;;;;;;;25.73;4.03;;;21.40;28.40;;;;;;5065430;28;20479;-70
2022/07/04 01:57:01;;;;;;;25.03;4.83;;;21.40;28.80;;;;;;5080363;28;20459;-69
2022/07/04 02:02:09;;;;;;;23.60;4.20;;;21.40;28.60;;;;;;5065910;28;20996;-70
2022/07/04 02:04:36;;;;;;;25.67;4.47;;;21.40;28.70;;;;;;5057616;28;20492;-69
2022/07/04 02:07:03;;;;;;;24.87;4.00;;;21.40;28.80;;;;;;5073470;28;20477;-70
2022/07/04 02:09:30;;;;;;;23.50;3.83;;;21.40;28.90;;;;;;5070509;28;20984;-70
2022/07/04 02:14:43;;;;;;;25.33;4.70;;;21.40;29.20;;;;;;5065656;28;20698;-70
2022/07/04 02:17:10;;;;;;;25.70;4.30;;;21.40;29.60;;;;;;5080710;28;20455;-69
2022/07/04 02:19:37;;;;;;;26.33;4.47;;;21.40;29.60;;;;;;5073758;28;20548;-69
2022/07/04 02:22:04;;;;;;;23.73;4.23;;;21.40;29.60;;;;;;5077834;28;20460;-70
2022/07/04 02:24:31;;;;;;;24.30;4.40;;;21.40;29.90;;;;;;5068507;28;20885;-70
2022/07/04 02:26:59;;;;;;;24.23;4.50;;;21.40;30.20;;;;;;5064666;28;20472;-70
2022/07/04 02:29:26;;;;;;;24.43;4.53;;;21.40;30.50;;;;;;5075925;28;20456;-70
2022/07/04 02:31:53;;;;;;;24.37;4.33;;;21.30;30.30;;;;;;5067133;28;21458;-69
2022/07/04 02:34:19;;;;;;;23.80;4.50;;;21.40;30.30;;;;;;5068099;28;20485;-71
2022/07/04 02:36:46;;;;;;;25.93;4.40;;;21.30;30.60;;;;;;5076297;28;20464;-71
2022/07/04 02:39:13;;;;;;;26.13;4.80;;;21.30;30.70;;;;;;5071560;28;20472;-70
2022/07/04 02:41:40;;;;;;;25.33;4.30;;;21.30;30.80;;;;;;5067777;28;20812;-70
2022/07/04 02:44:08;;;;;;;25.27;4.00;;;21.40;30.50;;;;;;5068661;28;20477;-70
2022/07/04 02:46:35;;;;;;;27.03;4.70;;;21.40;32.00;;;;;;5071066;28;20486;-70
2022/07/04 02:49:03;;;;;;;27.87;5.27;;;21.40;31.30;;;;;;5081825;28;21221;-70
2022/07/04 02:51:30;;;;;;;25.03;3.87;;;21.40;31.00;;;;;;5077175;28;20464;-70
2022/07/04 02:53:57;;;;;;;25.00;4.47;;;21.50;31.20;;;;;;5066988;28;20485;-69
2022/07/04 02:56:24;;;;;;;28.37;4.83;;;21.50;31.80;;;;;;5077289;28;20456;-70
2022/07/04 02:58:50;;;;;;;25.50;4.43;;;21.50;31.80;;;;;;5070225;28;20460;-70
2022/07/04 03:01:19;;;;;;;24.40;4.10;;;21.50;31.60;;;;;;5087400;28;20468;-70
2022/07/04 03:03:46;;;;;;;25.50;4.20;;;21.50;31.40;;;;;;5071564;28;20508;-70
2022/07/04 03:06:14;;;;;;;26.10;4.70;;;21.50;31.70;;;;;;5077053;28;20464;-69
2022/07/04 03:08:41;;;;;;;24.13;4.37;;;21.50;31.70;;;;;;5070870;28;20495;-70
2022/07/04 03:11:08;;;;;;;24.87;4.70;;;21.60;32.10;;;;;;5078734;28;20456;-70
2022/07/04 03:13:37;;;;;;;26.30;4.40;;;21.50;32.00;;;;;;5084130;28;20472;-70
2022/07/04 03:16:04;;;;;;;24.87;4.83;;;21.50;31.90;;;;;;5083799;28;20463;-69
2022/07/04 03:18:32;;;;;;;27.10;5.60;;;21.40;32.30;;;;;;5076447;28;20456;-69
2022/07/04 03:20:59;;;;;;;26.30;5.10;;;21.40;32.60;;;;;;5081865;28;20975;-70
2022/07/04 03:23:26;;;;;;;27.20;5.10;;;21.40;32.50;;;;;;5071642;28;20472;-69
2022/07/04 03:25:53;;;;;;;27.73;5.47;;;21.30;32.50;;;;;;5076543;28;20457;-69
2022/07/04 03:28:19;;;;;;;34.30;5.70;;;21.30;32.70;;;;;;5069698;28;20481;-70
2022/07/04 03:30:46;;;;;;;30.00;5.63;;;21.20;32.90;;;;;;5078887;28;20477;-70
2022/07/04 03:33:13;;;;;;;25.03;5.00;;;21.20;33.10;;;;;;5072099;28;20450;-69
2022/07/04 03:35:41;;;;;;;24.53;4.87;;;21.20;34.20;;;;;;5076531;28;20459;-70
2022/07/04 03:38:08;;;;;;;28.70;5.60;;;21.20;33.30;;;;;;5061208;28;20458;-70
2022/07/04 03:40:35;;;;;;;29.27;5.27;;;21.20;33.00;;;;;;5063696;28;21093;-69
2022/07/04 03:43:03;;;;;;;26.70;5.37;;;21.10;33.00;;;;;;5069491;28;20457;-70
2022/07/04 03:45:30;;;;;;;27.03;5.63;;;21.10;33.00;;;;;;5070136;28;20465;-70
2022/07/04 03:47:57;;;;;;;27.00;4.90;;;21.00;32.90;;;;;;5068474;28;20993;-70
2022/07/04 03:50:24;;;;;;;26.27;4.70;;;21.00;32.90;;;;;;5069258;28;20530;-70
2022/07/04 03:52:52;;;;;;;25.10;4.60;;;20.90;33.00;;;;;;5069589;28;20457;-69
2022/07/04 03:55:19;;;;;;;27.17;4.90;;;20.90;33.30;;;;;;5068610;28;20461;-70
2022/07/04 03:57:46;;;;;;;27.30;4.60;;;20.90;33.20;;;;;;5065983;28;20454;-70
2022/07/04 04:00:14;;;;;;;25.40;4.50;;;20.80;33.40;;;;;;5069242;28;20472;-70
2022/07/04 04:02:41;;;;;;;27.83;4.63;;;20.80;33.50;;;;;;5053102;28;20514;-70
2022/07/04 04:08:02;;;;;;;25.37;4.80;;;20.80;33.40;;;;;;5029170;28;20474;-70
2022/07/04 04:10:31;;;;;;;29.00;4.43;;;20.80;33.30;;;;;;5079171;28;21010;-70
2022/07/04 04:12:58;;;;;;;27.30;4.70;;;20.80;33.20;;;;;;5088990;28;20467;-70
2022/07/04 04:15:25;;;;;;;24.50;3.70;;;20.70;33.30;;;;;;5097928;28;20455;-70
2022/07/04 04:17:52;;;;;;;26.83;4.20;;;20.80;33.10;;;;;;5093647;28;20460;-70
2022/07/04 04:20:18;;;;;;;24.47;4.10;;;20.70;33.00;;;;;;5090201;28;20456;-67
2022/07/04 04:22:45;;;;;;;26.80;4.30;;;20.80;33.30;;;;;;5090074;28;20471;-70
2022/07/04 04:25:13;;;;;;;24.80;4.53;;;20.80;33.60;;;;;;5090167;28;20480;-70
2022/07/04 04:27:40;;;;;;;26.60;4.47;;;20.80;33.70;;;;;;5089958;28;21038;-70
2022/07/04 04:30:08;;;;;;;26.07;5.50;;;20.80;33.70;;;;;;5088135;28;20460;-70
2022/07/04 04:32:35;;;;;;;28.53;5.20;;;20.80;33.90;;;;;;5091472;28;20467;-70
2022/07/04 04:35:01;;;;;;;27.33;4.70;;;20.80;34.00;;;;;;5100004;28;20486;-70
2022/07/04 04:37:28;;;;;;;26.60;5.50;;;20.90;34.40;;;;;;5101809;28;20998;-70
2022/07/04 04:39:55;;;;;;;25.10;5.77;;;20.80;34.50;;;;;;5084679;28;23017;-70
2022/07/04 04:42:23;;;;;;;25.30;4.70;;;20.80;34.60;;;;;;5089784;28;20498;-70
2022/07/04 04:44:50;;;;;;;26.53;5.07;;;20.80;34.60;;;;;;5083538;28;20483;-70
2022/07/04 04:47:17;;;;;;;26.63;4.57;;;20.90;34.50;;;;;;5089169;28;21007;-70
2022/07/04 04:49:43;;;;;;;28.30;5.20;;;20.90;34.90;;;;;;5089067;28;20452;-70
2022/07/04 04:52:11;;;;;;;25.83;4.73;;;20.90;34.80;;;;;;5088032;28;20463;-70
2022/07/04 04:54:38;;;;;;;24.90;5.10;;;20.90;34.90;;;;;;5079226;28;20505;-70
2022/07/04 04:57:05;;;;;;;28.60;6.33;;;20.80;35.00;;;;;;5088997;28;20460;-70
2022/07/04 04:59:34;;;;;;;25.53;5.50;;;20.80;35.20;;;;;;5088704;28;20932;-69
2022/07/04 05:02:01;;;;;;;24.50;5.30;;;20.90;35.40;;;;;;5085923;28;20476;-71
2022/07/04 05:04:28;;;;;;;25.77;5.10;;;20.90;35.20;;;;;;5089280;28;21009;-71
2022/07/04 05:06:55;;;;;;;25.43;5.20;;;20.90;35.10;;;;;;5088711;28;20825;-71
2022/07/04 05:09:22;;;;;;;30.77;5.03;;;20.90;35.00;;;;;;5088443;28;20506;-72
2022/07/04 05:11:49;;;;;;;25.80;5.27;;;21.00;35.20;;;;;;5085224;28;20466;-72
2022/07/04 05:14:16;;;;;;;26.07;5.27;;;20.90;35.20;;;;;;5087573;28;20489;-71
2022/07/04 05:16:44;;;;;;;27.33;5.30;;;21.00;35.10;;;;;;5089209;28;20462;-71
2022/07/04 05:19:12;;;;;;;27.70;4.80;;;21.00;35.00;;;;;;5088783;28;20456;-71
2022/07/04 05:21:38;;;;;;;27.03;4.70;;;21.00;34.80;;;;;;5080485;28;20469;-71
2022/07/04 05:24:06;;;;;;;27.20;4.73;;;21.00;34.70;;;;;;5088227;28;21034;-71
2022/07/04 05:26:33;;;;;;;24.80;4.70;;;21.00;34.60;;;;;;5088825;28;20467;-71
2022/07/04 05:28:59;;;;;;;25.57;5.13;;;21.00;34.30;;;;;;5088531;28;20488;-71
2022/07/04 05:31:26;;;;;;;24.80;4.47;;;21.00;34.50;;;;;;5081384;28;20465;-71
2022/07/04 05:33:55;;;;;;;25.63;4.50;;;21.00;34.90;;;;;;5088625;28;20476;-71
2022/07/04 05:36:22;;;;;;;26.20;4.63;;;21.10;34.40;;;;;;5088456;28;21130;-69
2022/07/04 05:38:49;;;;;;;26.10;5.00;;;21.10;34.20;;;;;;5088910;28;20458;-69
2022/07/04 05:41:15;;;;;;;25.80;3.97;;;21.10;34.10;;;;;;5086498;28;20464;-69
2022/07/04 05:43:42;;;;;;;26.90;4.27;;;21.20;33.80;;;;;;5089100;28;20480;-72
2022/07/04 05:46:09;;;;;;;24.97;4.07;;;21.20;33.70;;;;;;5088207;28;20545;-72
2022/07/04 05:48:36;;;;;;;25.70;4.50;;;21.20;33.60;;;;;;5088743;28;20520;-72
2022/07/04 05:51:05;;;;;;;27.13;4.90;;;21.20;33.50;;;;;;5085216;28;20452;-70
2022/07/04 05:53:32;;;;;;;25.40;4.23;;;21.30;33.60;;;;;;5088421;28;20476;-70
2022/07/04 05:55:59;;;;;;;26.73;4.30;;;21.30;33.30;;;;;;5088234;28;20459;-70
2022/07/04 05:58:26;;;;;;;30.60;4.60;;;21.40;33.20;;;;;;5085958;28;20846;-70
2022/07/04 06:00:53;;;;;;;26.40;4.20;;;21.50;33.00;;;;;;5087600;28;20486;-70
2022/07/04 06:03:19;;;;;;;27.17;4.90;;;21.60;32.70;;;;;;5086406;28;20480;-70
2022/07/04 06:05:46;;;;;;;28.27;4.23;;;21.70;32.60;;;;;;5087993;28;20452;-70
2022/07/04 06:08:14;;;;;;;26.87;4.80;;;21.80;32.10;;;;;;5087923;28;20498;-70
2022/07/04 06:10:41;;;;;;;25.83;3.90;;;21.90;31.80;;;;;;5074577;28;20456;-69
2022/07/04 06:13:08;;;;;;;25.73;4.27;;;21.90;31.80;;;;;;5085765;28;20464;-69
2022/07/04 06:15:35;;;;;;;26.93;4.70;;;22.00;31.70;;;;;;5088173;28;20460;-69
2022/07/04 06:18:02;;;;;;;26.70;4.70;;;22.10;31.60;;;;;;5087699;28;20991;-71
2022/07/04 06:20:29;;;;;;;25.80;3.97;;;22.20;31.30;;;;;;5088006;28;20461;-70
2022/07/04 06:22:56;;;;;;;25.60;4.27;;;22.30;30.80;;;;;;5084288;28;21033;-70
2022/07/04 06:25:24;;;;;;;28.07;3.43;;;22.30;30.40;;;;;;5090680;28;20851;-70
2022/07/04 06:27:52;;;;;;;26.20;3.77;;;22.30;30.10;;;;;;5092290;28;20480;-70
2022/07/04 06:30:19;;;;;;;25.93;3.53;;;22.30;29.60;;;;;;5091350;28;20532;-70
2022/07/04 06:32:47;;;;;;;25.17;3.70;;;22.30;29.30;;;;;;5092272;28;20460;-70
2022/07/04 06:37:59;;;;;;;25.90;3.63;;;22.20;28.90;;;;;;5091885;28;20458;-70
2022/07/04 06:40:27;;;;;;;27.10;3.80;;;22.30;28.50;;;;;;5091259;28;20470;-70
2022/07/04 06:42:54;;;;;;;26.07;3.70;;;22.30;28.10;;;;;;5092031;28;20463;-70
2022/07/04 06:45:21;;;;;;;26.73;4.00;;;22.40;27.80;;;;;;5089847;28;20456;-70
2022/07/04 06:47:48;;;;;;;28.13;3.83;;;22.50;27.70;;;;;;5091756;28;20491;-70
2022/07/04 06:50:14;;;;;;;27.90;4.20;;;22.60;27.20;;;;;;5091230;28;20463;-71
2022/07/04 06:52:41;;;;;;;27.90;4.10;;;22.60;26.80;;;;;;5091952;28;20460;-70
2022/07/04 06:55:09;;;;;;;26.40;3.90;;;22.70;26.70;;;;;;5087487;28;20475;-70
2022/07/04 06:57:37;;;;;;;26.67;3.47;;;22.70;26.50;;;;;;5091515;28;20459;-70
2022/07/04 07:00:06;;;;;;;26.40;3.77;;;22.80;26.00;;;;;;5092180;28;20464;-70
2022/07/04 07:02:35;;;;;;;26.87;4.13;;;22.90;26.00;;;;;;5090312;28;20491;-70
2022/07/04 07:05:02;;;;;;;28.00;4.30;;;23.00;26.40;;;;;;5090024;28;20540;-70
2022/07/04 07:07:29;;;;;;;28.73;5.23;;;23.10;26.20;;;;;;5090840;28;20456;-72
2022/07/04 07:09:56;;;;;;;27.63;4.03;;;23.30;25.20;;;;;;5090797;28;21200;-70
2022/07/04 07:12:23;;;;;;;28.87;4.10;;;23.60;24.30;;;;;;5091826;28;20463;-70
2022/07/04 07:14:52;;;;;;;28.07;4.33;;;23.80;23.10;;;;;;5091363;28;20502;-70
2022/07/04 07:17:19;;;;;;;26.97;3.50;;;24.40;22.30;;;;;;5090460;28;20942;-70
2022/07/04 07:19:46;;;;;;;28.33;3.63;;;25.40;20.20;;;;;;5090490;28;20467;-70
2022/07/04 07:22:13;;;;;;;27.87;3.90;;;26.50;18.30;;;;;;5091417;28;20975;-70
2022/07/04 07:24:40;;;;;;;28.00;3.63;;;28.30;15.30;;;;;;5090764;28;20591;-70
2022/07/04 07:27:08;;;;;;;31.90;3.40;;;29.90;11.20;;;;;;5087735;28;20464;-70
2022/07/04 07:29:36;;;;;;;26.80;3.20;;;31.30;9.70;;;;;;5090458;28;20492;-70
2022/07/04 07:32:05;;;;;;;27.20;3.13;;;32.50;6.90;;;;;;5090673;28;20476;-70
2022/07/04 07:34:32;;;;;;;29.60;3.53;;;33.20;5.70;;;;;;5090481;28;20476;-70
2022/07/04 07:36:59;;;;;;;25.50;2.80;;;33.70;4.40;;;;;;5089004;28;20488;-70
2022/07/04 07:39:25;;;;;;;25.80;3.33;;;34.30;2.70;;;;;;5090581;28;20460;-70
2022/07/04 07:41:52;;;;;;;26.97;3.00;;;35.00;3.00;;;;;;5090958;28;21030;-70
2022/07/04 07:44:19;;;;;;;25.50;2.50;;;36.20;1.50;;;;;;5090518;28;20480;-70
2022/07/04 07:46:46;;;;;;;24.40;2.90;;;36.90;1.00;;;;;;5088399;28;20480;-70
2022/07/04 07:49:14;;;;;;;28.30;3.20;;;37.20;1.00;;;;;;5090936;28;20490;-70
2022/07/04 07:51:41;;;;;;;25.70;3.30;;;36.90;1.00;;;;;;5089968;28;20460;-71
2022/07/04 07:54:07;;;;;;;25.57;3.40;;;37.00;1.00;;;;;;5091123;28;20482;-71
2022/07/04 07:56:34;;;;;;;24.40;2.57;;;37.90;1.00;;;;;;5090423;28;20460;-71
2022/07/04 07:59:01;;;;;;;26.30;3.17;;;38.70;1.00;;;;;;5088647;28;20459;-71
2022/07/04 08:01:28;;;;;;;25.13;2.70;;;39.10;1.00;;;;;;5089512;28;20475;-71
2022/07/04 08:06:40;;;;;;;24.83;2.70;;;39.60;1.00;;;;;;5090657;28;20462;-70
2022/07/04 08:09:08;;;;;;;23.90;2.47;;;40.90;1.00;;;;;;5090152;28;20522;-71
2022/07/04 08:11:35;;;;;;;24.07;2.50;;;42.30;1.00;;;;;;5090349;28;20545;-71
2022/07/04 08:14:01;;;;;;;23.30;2.90;;;43.20;1.00;;;;;;5090442;28;20476;-71
2022/07/04 08:16:28;;;;;;;23.83;2.60;;;43.90;1.00;;;;;;5090884;28;20466;-71
2022/07/04 08:18:55;;;;;;;22.47;2.37;;;44.10;1.00;;;;;;5089672;28;20479;-71
2022/07/04 08:21:22;;;;;;;22.57;2.50;;;44.90;1.00;;;;;;5089607;28;20565;-71
2022/07/04 08:23:50;;;;;;;22.60;2.37;;;46.10;1.00;;;;;;5090033;28;20487;-71
2022/07/04 08:26:17;;;;;;;21.63;2.20;;;47.50;1.00;;;;;;5090275;28;20456;-71
2022/07/04 08:28:43;;;;;;;21.90;2.10;;;48.60;1.00;;;;;;5089756;28;20511;-71
2022/07/04 08:31:10;;;;;;;23.47;2.40;;;49.40;1.00;;;;;;5089165;28;20465;-71
2022/07/04 08:33:37;;;;;;;22.17;2.30;;;48.70;1.00;;;;;;5089493;28;20487;-71
2022/07/04 08:36:04;;;;;;;22.20;2.23;;;49.10;1.00;;;;;;5089491;28;20456;-71
2022/07/04 08:38:31;;;;;;;21.60;2.50;;;50.00;1.00;;;;;;5089871;28;20457;-71
2022/07/04 08:41:03;;;;;;;21.60;2.30;;;50.70;1.00;;;;;;5089947;28;20565;-71
2022/07/04 08:43:33;;;;;;;21.03;2.10;;;51.40;1.00;;;;;;5089772;28;20480;-71
2022/07/04 08:46:01;;;;;;;21.53;2.10;;;51.90;1.00;;;;;;5088772;28;20577;-71
2022/07/04 08:48:27;;;;;;;21.30;2.27;;;52.60;1.00;;;;;;5089094;28;20506;-71
2022/07/04 08:50:57;;;;;;;19.90;2.10;;;52.30;1.00;;;;;;5088574;28;20460;-71
2022/07/04 08:53:28;;;;;;;20.60;2.53;;;50.80;1.00;;;;;;5089609;28;20499;-71
2022/07/04 08:58:43;;;;;;;22.17;2.43;;;48.20;1.00;;;;;;5089625;28;20419;-70
2022/07/04 09:01:14;;;;;;;20.93;2.10;;;49.30;1.00;;;;;;5088586;28;20480;-71
2022/07/04 09:03:42;;;;;;;22.90;2.33;;;50.80;1.00;;;;;;5089862;28;21142;-71
2022/07/04 09:06:08;;;;;;;20.37;1.80;;;52.00;1.00;;;;;;5089696;28;20475;-71
2022/07/04 09:08:35;;;;;;;20.20;2.30;;;53.00;1.00;;;;;;5089159;28;20491;-71
2022/07/04 09:11:03;;;;;;;27.30;4.40;;;53.40;1.00;;;;;;5088207;28;20467;-71
2022/07/04 09:13:31;;;;;;;20.10;1.80;;;53.50;1.00;;;;;;5089804;28;20479;-71
2022/07/04 09:16:00;;;;;;;19.53;1.60;;;53.50;1.00;;;;;;5089323;28;20470;-71
2022/07/04 09:18:29;;;;;;;22.97;2.67;;;53.40;1.00;;;;;;5089237;28;20463;-71
2022/07/04 09:20:58;;;;;;;21.60;2.03;;;53.70;1.00;;;;;;5075018;28;20483;-71
2022/07/04 09:23:27;;;;;;;19.27;1.93;;;53.90;1.00;;;;;;5088677;28;20487;-71
2022/07/04 09:26:08;;;;;;;21.50;1.80;;;53.80;1.00;;;;;;5088874;28;20467;-71
2022/07/04 09:28:36;;;;;;;20.20;1.83;;;52.50;1.00;;;;;;5088900;28;20462;-72
2022/07/04 09:31:15;;;;;;;19.97;1.93;;;50.70;1.00;;;;;;5088254;28;20475;-71
2022/07/04 09:33:53;;;;;;;23.67;2.23;;;49.30;1.00;;;;;;5088762;28;20503;-71
2022/07/04 09:36:22;;;;;;;21.60;2.00;;;47.60;1.00;;;;;;5087645;28;21168;-71
2022/07/04 09:39:14;;;;;;;25.37;2.40;;;45.80;1.00;;;;;;5088826;28;20464;-71
2022/07/04 09:41:58;;;;;;;21.83;2.40;;;44.50;1.00;;;;;;5088284;28;20556;-71
2022/07/04 09:44:26;;;;;;;22.43;2.00;;;43.00;1.00;;;;;;5088607;28;20479;-71
2022/07/04 09:46:56;;;;;;;25.27;2.20;;;41.80;1.00;;;;;;5077551;28;20471;-72
2022/07/04 09:49:23;;;;;;;22.60;2.27;;;40.50;1.00;;;;;;5085700;28;20488;-70
2022/07/04 09:51:52;;;;;;;23.00;2.33;;;39.40;1.00;;;;;;5089313;28;20460;-71
2022/07/04 09:54:24;;;;;;;24.17;2.93;;;38.60;1.00;;;;;;5088772;28;20494;-71
2022/07/04 09:56:53;;;;;;;25.20;3.00;;;38.00;1.00;;;;;;5088716;28;21108;-71
2022/07/04 09:59:20;;;;;;;24.30;2.80;;;37.60;1.00;;;;;;5087244;28;20463;-71
2022/07/04 10:01:48;;;;;;;23.90;3.07;;;37.30;1.00;;;;;;5088327;28;20471;-71
2022/07/04 10:04:16;;;;;;;24.20;3.30;;;37.00;1.00;;;;;;5088279;28;20506;-71
2022/07/04 10:06:45;;;;;;;24.60;3.43;;;36.70;1.00;;;;;;5088466;28;20462;-71
2022/07/04 10:09:13;;;;;;;24.37;3.07;;;36.40;1.00;;;;;;5088075;28;20488;-71
2022/07/04 10:11:41;;;;;;;24.67;2.77;;;36.20;1.00;;;;;;5087505;28;21034;-70
2022/07/04 10:14:09;;;;;;;24.30;2.93;;;36.00;1.00;;;;;;5088536;28;21336;-70
2022/07/04 10:16:38;;;;;;;23.57;2.50;;;35.90;1.00;;;;;;5087478;28;20967;-71
2022/07/04 10:19:05;;;;;;;23.73;2.73;;;36.00;1.00;;;;;;5087657;28;20467;-70
2022/07/04 10:21:34;;;;;;;24.63;3.40;;;35.80;1.00;;;;;;5087612;28;20495;-71
2022/07/04 10:24:02;;;;;;;25.30;3.23;;;35.40;1.00;;;;;;5088523;28;20483;-70
2022/07/04 10:26:30;;;;;;;24.00;3.30;;;34.90;1.00;;;;;;5087876;28;20846;-70
2022/07/04 10:28:57;;;;;;;26.33;3.50;;;34.30;1.00;;;;;;5087625;28;20883;-71
2022/07/04 10:31:27;;;;;;;26.13;3.43;;;33.90;1.00;;;;;;5086864;28;20464;-71
2022/07/04 10:33:55;;;;;;;24.03;3.50;;;33.60;1.10;;;;;;5087595;28;20472;-71
2022/07/04 10:36:27;;;;;;;25.43;3.43;;;33.30;1.80;;;;;;5074131;28;20492;-71
2022/07/04 10:38:58;;;;;;;24.23;3.10;;;33.20;2.00;;;;;;5088536;28;20948;-71
2022/07/04 10:41:28;;;;;;;27.27;3.07;;;33.30;2.00;;;;;;5087855;28;20543;-71
2022/07/04 10:44:06;;;;;;;26.40;3.30;;;33.40;2.70;;;;;;5087514;28;20483;-71
2022/07/04 10:46:35;;;;;;;24.90;2.90;;;33.60;2.20;;;;;;5087706;28;20547;-72
2022/07/04 10:49:05;;;;;;;24.43;3.40;;;33.60;2.40;;;;;;5087612;28;20495;-72
2022/07/04 10:51:41;;;;;;;26.83;3.40;;;33.60;2.30;;;;;;5087426;28;20517;-72
2022/07/04 10:54:11;;;;;;;24.60;2.90;;;33.30;2.40;;;;;;5074688;28;20494;-72
2022/07/04 10:56:40;;;;;;;25.30;3.27;;;33.00;2.10;;;;;;5084069;28;20464;-71
2022/07/04 10:59:13;;;;;;;25.80;3.67;;;32.70;2.10;;;;;;5087612;28;20456;-71
2022/07/04 11:01:40;;;;;;;28.93;3.90;;;32.40;2.80;;;;;;5086453;28;20472;-71
2022/07/04 11:04:06;;;;;;;24.47;3.80;;;32.20;4.20;;;;;;5085628;28;20480;-71
2022/07/04 11:06:54;;;;;;;25.50;3.67;;;32.10;6.50;;;;;;5087641;28;20993;-71
2022/07/04 11:09:24;;;;;;;26.47;4.30;;;31.90;5.20;;;;;;5087213;28;20491;-71
2022/07/04 11:11:57;;;;;;;26.40;3.60;;;31.80;5.10;;;;;;5090954;28;21040;-71
2022/07/04 11:14:38;;;;;;;25.20;3.60;;;31.70;5.20;;;;;;5089066;28;20502;-70
2022/07/04 11:17:06;;;;;;;27.40;3.70;;;31.80;5.70;;;;;;5091594;28;20448;-71
2022/07/04 11:19:33;;;;;;;25.93;4.27;;;31.80;4.50;;;;;;5090266;28;20458;-71
2022/07/04 11:22:00;;;;;;;23.50;3.13;;;31.70;4.50;;;;;;5091792;28;20465;-71
2022/07/04 11:24:29;;;;;;;24.93;3.83;;;31.90;6.50;;;;;;5089824;28;20483;-70
2022/07/04 11:26:56;;;;;;;24.83;3.37;;;32.00;6.00;;;;;;5089490;28;20821;-70
2022/07/04 11:29:23;;;;;;;25.50;3.67;;;31.90;4.40;;;;;;5090747;28;20485;-70
2022/07/04 11:31:52;;;;;;;26.07;3.40;;;31.70;4.20;;;;;;5090248;28;20479;-71
2022/07/04 11:34:20;;;;;;;24.70;3.23;;;31.60;4.90;;;;;;5091005;28;20487;-71
2022/07/04 11:36:48;;;;;;;23.93;4.00;;;31.60;6.30;;;;;;5088983;28;20463;-71
2022/07/04 11:39:18;;;;;;;27.53;4.00;;;31.50;6.60;;;;;;5091218;28;20471;-71
2022/07/04 11:47:20;;;;;;;25.90;3.97;;;31.20;6.30;;;;;;5087962;28;20863;-71
2022/07/04 11:49:49;;;;;;;26.60;4.03;;;31.20;6.70;;;;;;5090108;28;20488;-71
2022/07/04 11:52:18;;;;;;;25.50;4.30;;;31.40;6.70;;;;;;5090604;28;20452;-71
2022/07/04 11:54:47;;;;;;;26.13;3.60;;;31.50;5.40;;;;;;5090856;28;20482;-71
2022/07/04 11:57:18;;;;;;;26.67;3.93;;;31.50;6.00;;;;;;5087082;28;20460;-71
2022/07/04 11:59:54;;;;;;;26.40;4.20;;;31.50;5.90;;;;;;5088303;28;21045;-70
2022/07/04 12:02:21;;;;;;;25.20;3.57;;;31.50;5.30;;;;;;5088427;28;20468;-71
2022/07/04 12:04:47;;;;;;;24.70;3.53;;;31.70;5.20;;;;;;5090472;28;20476;-71
2022/07/04 12:07:15;;;;;;;25.90;3.60;;;31.80;5.10;;;;;;5090790;28;20839;-71
2022/07/04 12:09:43;;;;;;;25.57;3.77;;;31.80;4.60;;;;;;5089272;28;20492;-71
2022/07/04 12:12:11;;;;;;;25.40;3.80;;;31.70;4.70;;;;;;5089130;28;20466;-71
2022/07/04 12:14:39;;;;;;;25.87;4.33;;;31.70;5.00;;;;;;5090117;28;20487;-71
2022/07/04 12:17:15;;;;;;;27.23;3.70;;;31.70;5.60;;;;;;5090116;28;20448;-71
2022/07/04 12:19:55;;;;;;;24.70;4.27;;;31.70;5.40;;;;;;5089794;28;20525;-71
2022/07/04 12:22:43;;;;;;;27.30;3.50;;;31.70;5.50;;;;;;5087843;28;20463;-71
2022/07/04 12:25:25;;;;;;;27.57;4.40;;;31.70;4.90;;;;;;5071181;28;20574;-71
2022/07/04 12:27:56;;;;;;;26.57;4.50;;;31.60;4.90;;;;;;5089908;28;20463;-71
2022/07/04 12:30:25;;;;;;;26.70;3.70;;;31.60;5.30;;;;;;5089562;28;20480;-71
2022/07/04 12:32:53;;;;;;;26.07;4.50;;;31.60;5.40;;;;;;5079084;28;20465;-71
2022/07/04 12:35:37;;;;;;;25.60;4.37;;;31.60;5.40;;;;;;5089791;28;20953;-71
2022/07/04 12:38:06;;;;;;;25.27;4.07;;;31.60;5.30;;;;;;5089475;28;20464;-71
2022/07/04 12:40:32;;;;;;;26.40;4.20;;;31.50;5.80;;;;;;5088730;28;20463;-71
2022/07/04 12:43:00;;;;;;;26.03;4.00;;;31.50;6.10;;;;;;5087990;28;20457;-71
2022/07/04 12:45:43;;;;;;;25.90;4.20;;;31.50;6.10;;;;;;5090116;28;20463;-71
2022/07/04 12:48:16;;;;;;;25.30;4.17;;;31.50;5.80;;;;;;5089480;28;20452;-71
2022/07/04 12:50:43;;;;;;;26.20;3.97;;;31.30;5.80;;;;;;5088910;28;20499;-70
2022/07/04 12:53:10;;;;;;;26.37;4.00;;;31.20;6.40;;;;;;5087963;28;20521;-71
2022/07/04 12:55:38;;;;;;;26.33;4.40;;;31.10;6.50;;;;;;5089360;28;20567;-70
2022/07/04 12:58:05;;;;;;;26.80;3.80;;;31.10;4.90;;;;;;5089166;28;20468;-70
2022/07/04 13:00:33;;;;;;;32.80;4.13;;;30.90;4.70;;;;;;5088239;28;20827;-72
2022/07/04 13:03:00;;;;;;;26.10;4.57;;;30.90;6.20;;;;;;5086875;28;20474;-72
2022/07/04 13:05:27;;;;;;;30.50;4.30;;;30.90;6.40;;;;;;5076066;28;20460;-72
2022/07/04 13:07:54;;;;;;;27.63;4.07;;;30.90;6.50;;;;;;5089756;28;20467;-70